Figari Sud-Corse Airport

LFKF · South Corsica, Corsica, 法国

罗盘
风向 的 风向 240° Figari Sud-Corse Airport 5/23
风: 10 kt, 3 beaufort

10 kt

2 kt
改变
0 ft 1.000 2.000 3.000 4.000 5.000
CAVOK
METAR LFKF 160200Z AUTO 24010KT CAVOK 21/15 Q1011

METAR Figari Sud-Corse Airport - LFKF/FSC

Figari Sud-Corse Airport是,法国中的中型机场。 该机场位于纬度41,50225和经度9,09697。 该机场有一条跑道: 5/23. 本场的ICAO机场代码为LFKF。 该机场的IATA代码为FSC。 机场在Marseille FIR中。

该航空气象观测是针对Figari Sud-Corse Airport在2024年6月16日 04:00, 当地时间进行的。

机场观察

风向为240°,速度为10 kt。

天气为CAVOK。这意味着在5.000 ft或MSA(最低安全高度)以下(以较高者为准)以下没有云。这也意味着没有观测到积雨云或高耸的积云,可见度为10 km 或者更多或更高。此外,不会有雾,降雨或其他重要天气。

温度和风寒是21 °C。 露点为15 °C,相对湿度为69%。 海平面上的气压为1011 hPa (QNH)。

白天

今天,太阳从05:49升起,在20:59降落。 这适用于Figari Sud-Corse Airport,世界夏令时可能有所不同。 当地时间与世界标准时间之间的时差为+2 小时。 夏令时目前正在进行中。

公司介绍

在这个机场,你可以找到飞行俱乐部。 本场上唯一已知的公司是Aéroclub de Figari Sud Corse。

体会

到Vliegles.nl去找飞行课程,跳伞和其他飞行体验。 浏览页面,了解Figari Sud-Corse Airport附近所有可用的活动。 你也可以使用搜索功能来寻找你所在地附近的特定飞行课程、跳伞或其他飞行体验。

跑道

Id 标题 侧风 逆风 侧风 %
5/23 047°-227° 2 kt 10 kt 22 %

逆风成分最大的方向会被突出显示,并用于横风计算。 这并不一定意味着这个方向在使用。

温度 & 天气

温度 21 °C
露点 15 °C
相对湿度 69%
Kp-index 3 (0-9)

白天

日出
05:49 (1:29)
中午
13:24
日落
20:59

小工具

你想在你的网站上有一个关于Figari Sud-Corse Airport的当前航空天气(METAR)的小部件吗?

显示HTML代码
报告变更